Baskett, Kentucky
Current Conditions -  °F | °C
As of 1:54 PM on Wednesday 26 Nov 2014 (Local Time) from KEVV Reporting Station
Clear Clear  
Wind Chill: 35°   Ceiling: Unl
Heat Index: 39°   Visibility: 10mi
Dew Point: 28°   Wind: 6mph
Humidity: 65%   Direction: 100°E
Pressure: 30.04"   Gusts: NA
Location:  37.87°N, 87.46°W
Report Text: KEVV 261954Z 10005KT 10SM CLR 04/M02 A3004 RMK AO2 SLP175 T00391022
Loading
Personal Weather Stations






























Interactive Weather Map New forecast layout! Learn more

10-Day Weather Forecast

Advertisements
Track Severe Weather on mobile